TimeEST,TemperatureF,Dew PointF,Humidity,Sea Level PressureIn,VisibilityMPH,Wind Direction,Wind SpeedMPH,Gust SpeedMPH,PrecipitationIn,Events,Conditions,WindDirDegrees,DateUTC
12:15 AM,26.6,24.8,93,29.62,10.0,WSW,10.4,17.3,N/A,,Overcast,240,2014-01-17 05:15:00
12:35 AM,26.6,21.2,80,29.62,10.0,SW,10.4,-,N/A,,Overcast,230,2014-01-17 05:35:00
12:55 AM,26.6,21.2,80,29.63,10.0,West,13.8,-,N/A,Snow,Light Snow,260,2014-01-17 05:55:00
1:15 AM,26.6,19.4,74,29.63,10.0,West,12.7,19.6,N/A,,Overcast,260,2014-01-17 06:15:00
1:35 AM,24.8,19.4,80,29.63,10.0,West,9.2,-,N/A,,Overcast,270,2014-01-17 06:35:00
1:55 AM,24.8,17.6,74,29.64,10.0,West,9.2,-,N/A,,Mostly Cloudy,260,2014-01-17 06:55:00
2:15 AM,24.8,17.6,74,29.65,10.0,WSW,5.8,-,N/A,,Clear,240,2014-01-17 07:15:00
2:35 AM,21.2,17.6,86,29.66,10.0,SW,6.9,-,N/A,,Clear,230,2014-01-17 07:35:00
2:55 AM,21.2,17.6,86,29.66,10.0,SW,6.9,-,N/A,,Clear,230,2014-01-17 07:55:00
3:15 AM,21.2,15.8,80,29.67,10.0,SW,6.9,-,N/A,,Scattered Clouds,230,2014-01-17 08:15:00
3:35 AM,21.2,15.8,80,29.68,10.0,SW,6.9,-,N/A,,Scattered Clouds,230,2014-01-17 08:35:00
3:55 AM,21.2,15.8,80,29.68,10.0,WSW,9.2,-,N/A,,Mostly Cloudy,250,2014-01-17 08:55:00
4:15 AM,21.2,15.8,80,29.69,10.0,SW,6.9,-,N/A,,Overcast,220,2014-01-17 09:15:00
4:35 AM,21.2,15.8,80,29.69,10.0,SW,5.8,-,N/A,,Overcast,220,2014-01-17 09:35:00
4:55 AM,21.2,17.6,86,29.69,10.0,SSW,5.8,-,N/A,,Overcast,210,2014-01-17 09:55:00
5:15 AM,21.2,15.8,80,29.70,10.0,SW,4.6,-,N/A,,Overcast,230,2014-01-17 10:15:00
5:35 AM,21.2,17.6,86,29.70,10.0,SW,4.6,-,N/A,,Overcast,220,2014-01-17 10:35:00
5:55 AM,21.2,15.8,80,29.70,10.0,Calm,Calm,-,N/A,,Overcast,0,2014-01-17 10:55:00
6:15 AM,21.2,15.8,80,29.71,10.0,SW,3.5,-,N/A,,Overcast,220,2014-01-17 11:15:00
6:35 AM,21.2,15.8,80,29.71,10.0,WSW,3.5,-,N/A,,Overcast,240,2014-01-17 11:35:00
6:55 AM,21.2,15.8,80,29.72,10.0,WSW,3.5,-,N/A,,Overcast,250,2014-01-17 11:55:00
7:15 AM,21.2,15.8,80,29.72,10.0,Calm,Calm,-,N/A,,Overcast,0,2014-01-17 12:15:00
7:35 AM,21.2,17.6,86,29.72,10.0,Calm,Calm,-,N/A,Snow,Light Snow,0,2014-01-17 12:35:00
7:55 AM,21.2,17.6,86,29.73,5.0,WSW,3.5,-,N/A,Snow,Light Snow,240,2014-01-17 12:55:00
8:15 AM,21.2,17.6,86,29.73,7.0,West,3.5,-,N/A,Snow,Light Snow,260,2014-01-17 13:15:00
8:34 AM,21.2,17.6,86,29.74,7.0,West,5.8,-,N/A,Snow,Light Snow,260,2014-01-17 13:34:00
8:55 AM,21.2,17.6,86,29.75,10.0,West,4.6,-,N/A,Snow,Light Snow,260,2014-01-17 13:55:00
9:15 AM,21.2,17.6,86,29.76,10.0,West,5.8,-,N/A,Snow,Light Snow,260,2014-01-17 14:15:00
9:34 AM,21.2,17.6,86,29.76,10.0,West,6.9,-,N/A,Snow,Light Snow,270,2014-01-17 14:34:00
9:55 AM,21.2,19.4,93,29.77,7.0,West,6.9,-,N/A,Snow,Light Snow,260,2014-01-17 14:55:00
10:15 AM,21.2,19.4,93,29.77,7.0,WSW,6.9,-,N/A,Snow,Light Snow,250,2014-01-17 15:15:00
10:34 AM,21.2,19.4,93,29.78,10.0,WSW,6.9,-,N/A,Snow,Light Snow,240,2014-01-17 15:34:00
10:55 AM,21.2,17.6,86,29.78,10.0,West,8.1,-,N/A,Snow,Light Snow,270,2014-01-17 15:55:00
11:15 AM,21.2,17.6,86,29.78,10.0,West,6.9,-,N/A,Snow,Light Snow,260,2014-01-17 16:15:00
11:34 AM,21.2,17.6,86,29.79,7.0,West,6.9,-,N/A,Snow,Light Snow,270,2014-01-17 16:34:00
11:55 AM,21.2,17.6,86,29.79,10.0,West,6.9,-,N/A,Snow,Light Snow,280,2014-01-17 16:55:00
12:14 PM,21.2,15.8,80,29.79,7.0,West,10.4,-,N/A,Snow,Light Snow,270,2014-01-17 17:14:00
12:35 PM,21.2,15.8,80,29.79,5.0,WSW,10.4,-,N/A,Snow,Light Snow,250,2014-01-17 17:35:00
12:55 PM,21.2,15.8,80,29.78,5.0,West,10.4,-,N/A,Snow,Light Snow,270,2014-01-17 17:55:00
1:14 PM,21.2,15.8,80,29.78,5.0,West,10.4,-,N/A,Snow,Light Snow,260,2014-01-17 18:14:00
1:35 PM,19.4,15.8,86,29.78,5.0,West,9.2,-,N/A,Snow,Light Snow,260,2014-01-17 18:35:00
1:55 PM,19.4,15.8,86,29.78,5.0,West,10.4,-,N/A,Snow,Light Snow,270,2014-01-17 18:55:00
2:14 PM,19.4,15.8,86,29.79,7.0,WSW,11.5,-,N/A,Snow,Light Snow,250,2014-01-17 19:14:00
2:35 PM,19.4,15.8,86,29.79,7.0,West,9.2,-,N/A,Snow,Light Snow,270,2014-01-17 19:35:00
2:55 PM,19.4,15.8,86,29.80,7.0,West,8.1,-,N/A,Snow,Light Snow,260,2014-01-17 19:55:00
3:14 PM,19.4,14.0,80,29.81,4.0,West,11.5,-,N/A,Snow,Light Snow,260,2014-01-17 20:14:00
3:35 PM,19.4,14.0,80,29.82,2.5,West,11.5,16.1,N/A,Snow,Light Snow,260,2014-01-17 20:35:00
3:54 PM,17.6,15.8,93,29.84,2.0,WSW,9.2,-,N/A,Snow,Light Snow,250,2014-01-17 20:54:00
4:15 PM,17.6,14.0,86,29.85,1.8,WSW,10.4,-,N/A,Snow,Light Snow,240,2014-01-17 21:15:00
4:35 PM,17.6,14.0,86,29.85,1.2,West,10.4,-,N/A,Snow,Light Snow,260,2014-01-17 21:35:00
4:54 PM,15.8,12.2,86,29.86,1.0,West,10.4,-,N/A,Snow,Light Snow,260,2014-01-17 21:54:00
5:15 PM,15.8,12.2,86,29.87,1.8,WSW,8.1,-,N/A,Snow,Light Snow,250,2014-01-17 22:15:00
5:35 PM,14.0,10.4,86,29.88,3.0,SW,11.5,-,N/A,Snow,Light Snow,230,2014-01-17 22:35:00
5:54 PM,14.0,10.4,86,29.89,5.0,SW,10.4,-,N/A,Snow,Light Snow,230,2014-01-17 22:54:00
6:15 PM,12.2,8.6,85,29.90,10.0,SW,10.4,-,N/A,,Overcast,230,2014-01-17 23:15:00
6:35 PM,12.2,6.8,79,29.91,10.0,WSW,9.2,-,N/A,,Overcast,240,2014-01-17 23:35:00
6:54 PM,10.4,6.8,85,29.92,10.0,WSW,9.2,-,N/A,Snow,Light Snow,240,2014-01-17 23:54:00
7:15 PM,10.4,6.8,85,29.92,10.0,WSW,9.2,-,N/A,,Overcast,240,2014-01-18 00:15:00
7:35 PM,10.4,6.8,85,29.92,10.0,WSW,10.4,-,N/A,,Overcast,240,2014-01-18 00:35:00
7:54 PM,12.2,6.8,79,29.92,10.0,WSW,11.5,-,N/A,,Overcast,240,2014-01-18 00:54:00
8:15 PM,10.4,5.0,79,29.92,10.0,WSW,10.4,-,N/A,,Overcast,240,2014-01-18 01:15:00
8:35 PM,10.4,5.0,79,29.92,10.0,WSW,6.9,-,N/A,,Mostly Cloudy,240,2014-01-18 01:35:00
8:54 PM,8.6,3.2,79,29.92,10.0,SW,6.9,-,N/A,,Scattered Clouds,230,2014-01-18 01:54:00
9:15 PM,6.8,3.2,85,29.93,10.0,SW,6.9,-,N/A,,Clear,220,2014-01-18 02:15:00
9:35 PM,10.4,6.8,85,29.93,10.0,SSW,5.8,-,N/A,,Mostly Cloudy,210,2014-01-18 02:35:00
9:54 PM,10.4,6.8,85,29.93,7.0,SSW,9.2,-,N/A,Snow,Light Snow,210,2014-01-18 02:54:00
10:15 PM,10.4,6.8,85,29.93,10.0,SW,9.2,-,N/A,Snow,Light Snow,220,2014-01-18 03:15:00
10:35 PM,10.4,6.8,85,29.93,10.0,SSW,9.2,-,N/A,Snow,Light Snow,210,2014-01-18 03:35:00
10:54 PM,10.4,8.6,92,29.93,10.0,SW,9.2,-,N/A,Snow,Light Snow,220,2014-01-18 03:54:00
11:15 PM,10.4,8.6,92,29.92,7.0,SW,8.1,-,N/A,Snow,Light Snow,220,2014-01-18 04:15:00
11:35 PM,10.4,8.6,92,29.92,5.0,SSW,8.1,-,N/A,Snow,Light Snow,210,2014-01-18 04:35:00
11:54 PM,12.2,8.6,85,29.91,5.0,SW,10.4,-,N/A,Snow,Light Snow,220,2014-01-18 04:54:00